Time;durP1;ratioP1;P1;durP2;ratioP2;P2;SDS_P1;SDS_P2;PMS_P1;PMS_P2;Temp;Humidity;BMP_temperature;BMP_pressure;BME280_temperature;BME280_humidity;BME280_pressure;Samples;Min_cycle;Max_cycle;Signal;HPM_P1;HPM_P2
2022/05/14 00:02:37;;;;;;;20.13;14.02;;;;;;;13.68;76.54;97518.56;10289243;28;20026;-58
2022/05/14 00:07:36;;;;;;;;;;;;;;;13.55;76.30;97510.06;10288735;28;20069;-57
2022/05/14 00:17:54;;;;;;;20.83;14.35;;;;;;;13.39;77.06;97495.53;10288487;28;20458;-57
2022/05/14 00:22:54;;;;;;;18.83;12.98;;;;;;;13.34;77.36;97500.84;10291237;28;20116;-57
2022/05/14 00:27:53;;;;;;;;;;;;;;;13.30;77.06;97496.53;10296723;28;20072;-57
2022/05/14 00:32:52;;;;;;;14.93;11.00;;;;;;;13.26;78.05;97486.22;10297103;28;19968;-58
2022/05/14 00:37:52;;;;;;;14.38;11.43;;;;;;;13.26;77.80;97484.47;10296256;28;20076;-57
2022/05/14 00:42:52;;;;;;;;;;;;;;;13.24;77.77;97473.22;10290885;28;20072;-57
2022/05/14 00:47:54;;;;;;;18.35;11.00;;;;;;;13.21;77.91;97491.50;10295355;28;19975;-58
2022/05/14 00:53:02;;;;;;;15.93;11.75;;;;;;;13.19;78.05;97481.97;10290211;28;20121;-58
2022/05/14 00:58:03;;;;;;;16.33;10.80;;;;;;;13.04;79.22;97491.75;10292258;28;20069;-58
2022/05/14 01:03:02;;;;;;;15.32;10.63;;;;;;;12.95;79.04;97468.44;10293438;28;20077;-58
2022/05/14 01:08:03;;;;;;;16.05;11.23;;;;;;;13.08;78.94;97490.81;10294091;28;20072;-58
2022/05/14 01:13:03;;;;;;;17.77;13.35;;;;;;;13.10;78.83;97478.63;10294375;28;20057;-58
2022/05/14 01:18:02;;;;;;;18.25;12.00;;;;;;;13.07;78.61;97486.50;10293625;28;20069;-58
2022/05/14 01:23:11;;;;;;;18.48;13.07;;;;;;;12.90;79.09;97459.84;10292879;28;20118;-58
2022/05/14 01:28:11;;;;;;;18.83;14.70;;;;;;;12.98;79.27;97472.75;10289208;28;20524;-58
2022/05/14 01:33:10;;;;;;;22.17;15.65;;;;;;;12.98;79.00;97471.03;10292719;28;20084;-58
2022/05/14 01:38:10;;;;;;;20.63;15.25;;;;;;;12.83;79.23;97460.81;10290228;28;20900;-58
2022/05/14 01:43:10;;;;;;;21.75;14.98;;;;;;;12.88;79.29;97469.41;10291198;28;20513;-58
2022/05/14 01:48:09;;;;;;;24.42;16.08;;;;;;;12.76;79.74;97456.59;10290616;28;20069;-58
2022/05/14 01:53:10;;;;;;;20.60;15.25;;;;;;;12.56;79.85;97460.34;10292133;28;20461;-58
2022/05/14 02:03:26;;;;;;;23.58;16.40;;;;;;;12.09;82.47;97465.22;10288777;28;20065;-58
2022/05/14 02:08:25;;;;;;;19.95;15.27;;;;;;;12.09;82.16;97474.78;10292231;28;20088;-58
2022/05/14 02:13:25;;;;;;;19.05;13.57;;;;;;;12.02;81.67;97457.53;10291532;28;20065;-57
2022/05/14 02:18:24;;;;;;;20.70;14.45;;;;;;;11.98;82.06;97468.84;10289543;28;20061;-58
2022/05/14 02:23:23;;;;;;;23.52;15.77;;;;;;;11.95;81.83;97451.53;10294123;28;20086;-58
2022/05/14 02:28:23;;;;;;;19.95;14.13;;;;;;;11.91;82.36;97451.56;10294156;28;20510;-58
2022/05/14 02:33:22;;;;;;;18.65;14.48;;;;;;;11.86;82.67;97462.88;10293833;28;20073;-57
2022/05/14 02:38:21;;;;;;;20.13;14.88;;;;;;;11.72;82.54;97445.72;10292107;28;20060;-58
2022/05/14 02:43:20;;;;;;;;;;;;;;;11.78;82.51;97466.44;10292747;28;20078;-58
2022/05/14 02:48:19;;;;;;;18.08;13.48;;;;;;;11.76;82.86;97476.88;10292449;28;19956;-57
2022/05/14 02:53:18;;;;;;;18.55;14.65;;;;;;;11.76;83.13;97475.97;10294983;28;20070;-57
2022/05/14 02:59:06;;;;;;;19.40;13.95;;;;;;;11.75;82.94;97464.72;10292559;28;20021;-57
2022/05/14 03:03:37;;;;;;;20.08;14.38;;;;;;;11.78;82.95;97469.91;10288630;28;20785;-57
2022/05/14 03:08:36;;;;;;;21.60;14.65;;;;;;;11.83;82.91;97468.13;10291824;28;20073;-57
2022/05/14 03:13:35;;;;;;;19.02;15.60;;;;;;;11.77;83.15;97459.53;10292438;28;20104;-57
2022/05/14 03:18:34;;;;;;;18.48;14.27;;;;;;;11.88;82.90;97471.53;10292008;28;20038;-57
2022/05/14 03:23:33;;;;;;;20.38;14.18;;;;;;;11.92;83.17;97474.09;10292281;28;20038;-57
2022/05/14 03:28:32;;;;;;;23.88;14.90;;;;;;;11.84;83.90;97477.63;10292201;28;20371;-57
2022/05/14 03:33:32;;;;;;;21.23;15.13;;;;;;;11.87;83.70;97477.59;10287513;28;20088;-57
2022/05/14 03:38:31;;;;;;;19.45;14.80;;;;;;;11.96;83.70;97478.38;10289039;28;20077;-57
2022/05/14 03:43:31;;;;;;;18.88;14.15;;;;;;;11.91;83.14;97469.78;10305360;28;20021;-57
2022/05/14 03:48:30;;;;;;;24.00;15.90;;;;;;;12.04;83.21;97489.53;10321333;28;20084;-57
2022/05/14 03:53:30;;;;;;;26.27;16.73;;;;;;;12.06;83.21;97493.88;10291288;28;20065;-57
2022/05/14 03:58:30;;;;;;;21.58;14.65;;;;;;;12.12;82.93;97495.53;10310796;28;20104;-58
2022/05/14 04:03:33;;;;;;;20.58;15.10;;;;;;;12.08;83.45;97507.69;10305599;28;20073;-57
2022/05/14 04:08:34;;;;;;;18.73;14.13;;;;;;;12.17;83.12;97504.16;10298841;28;20509;-57
2022/05/14 04:13:33;;;;;;;20.80;13.27;;;;;;;12.28;82.57;97512.72;10299132;28;20072;-57
2022/05/14 04:18:32;;;;;;;21.90;14.68;;;;;;;12.45;82.51;97514.25;10298621;28;20084;-57
2022/05/14 04:23:32;;;;;;;19.33;14.40;;;;;;;12.60;82.26;97527.09;10298565;28;20076;-57
2022/05/14 04:28:31;;;;;;;18.52;13.85;;;;;;;12.69;81.70;97524.34;10294290;28;20070;-57
2022/05/14 04:33:30;;;;;;;17.35;13.65;;;;;;;12.90;81.21;97532.75;10297296;28;20480;-57
2022/05/14 04:38:29;;;;;;;16.40;11.82;;;;;;;13.08;80.81;97537.72;10296084;28;20493;-57
2022/05/14 04:43:28;;;;;;;18.30;12.35;;;;;;;13.29;80.71;97540.91;10297980;28;20092;-57
2022/05/14 04:48:27;;;;;;;17.55;12.20;;;;;;;13.43;80.26;97549.34;10297387;28;20077;-57
2022/05/14 04:53:26;;;;;;;18.85;12.10;;;;;;;13.53;79.55;97566.56;10297820;28;20025;-57
2022/05/14 04:58:25;;;;;;;15.55;12.02;;;;;;;13.57;79.75;97543.94;10296402;28;20520;-57
2022/05/14 05:03:27;;;;;;;22.52;13.07;;;;;;;13.86;78.42;97559.09;10296635;28;20524;-57
2022/05/14 05:08:30;;;;;;;30.60;14.38;;;;;;;13.93;78.14;97571.16;10293461;28;20077;-57
2022/05/14 05:13:30;;;;;;;47.90;18.00;;;;;;;13.77;77.29;97559.25;10296742;28;20493;-57
2022/05/14 05:18:29;;;;;;;33.80;17.05;;;;;;;14.05;77.35;97574.44;10296579;28;20508;-57
2022/05/14 05:23:28;;;;;;;33.70;16.48;;;;;;;14.24;76.40;97582.78;10296445;28;20405;-57
2022/05/14 05:28:28;;;;;;;37.60;17.08;;;;;;;14.03;76.03;97577.09;10294553;28;20100;-57
2022/05/14 05:33:26;;;;;;;;;;;;;;;13.73;77.01;97584.53;10296064;28;20204;-57
2022/05/14 05:38:25;;;;;;;24.48;17.85;;;;;;;13.52;77.89;97596.13;10295817;28;20319;-57
2022/05/14 05:43:24;;;;;;;16.70;13.90;;;;;;;13.41;78.72;97607.59;10296079;28;20053;-57
2022/05/14 05:48:24;;;;;;;20.73;14.00;;;;;;;13.38;78.75;97610.28;10295511;28;20101;-57
2022/05/14 05:56:46;;;;;;;18.55;13.13;;;;;;;13.62;78.64;97609.06;10293074;28;20098;-57
2022/05/14 05:58:44;;;;;;;20.23;13.77;;;;;;;14.05;78.03;97619.63;10310887;28;20497;-57
2022/05/14 06:03:43;;;;;;;22.00;15.18;;;;;;;14.40;77.89;97618.16;10306095;28;20534;-57
2022/05/14 06:08:42;;;;;;;19.83;16.45;;;;;;;14.77;77.00;97618.34;10294856;28;20816;-57
2022/05/14 06:13:43;;;;;;;24.95;17.73;;;;;;;15.18;75.08;97607.94;10294917;28;20372;-57
2022/05/14 06:18:45;;;;;;;22.58;16.17;;;;;;;15.57;74.47;97621.00;10294978;28;20080;-57
2022/05/14 06:23:44;;;;;;;21.48;15.60;;;;;;;15.90;71.97;97611.50;10291607;28;20065;-57
2022/05/14 06:28:42;;;;;;;;;;;;;;;16.15;71.61;97629.22;10293937;28;20021;-58
2022/05/14 06:33:41;;;;;;;21.92;16.27;;;;;;;16.39;71.11;97627.72;10291798;28;20020;-58
2022/05/14 06:38:41;;;;;;;;;;;;;;;16.79;69.45;97617.00;10293453;28;20033;-58
2022/05/14 06:43:40;;;;;;;21.23;15.00;;;;;;;17.08;66.83;97612.75;10290332;28;19964;-58
2022/05/14 06:48:39;;;;;;;19.08;13.77;;;;;;;17.36;66.97;97607.53;10290656;28;20535;-58
2022/05/14 06:53:41;;;;;;;18.30;13.50;;;;;;;17.68;66.92;97598.66;10289570;28;20515;-58
2022/05/14 06:58:41;;;;;;;17.83;12.20;;;;;;;18.04;63.53;97608.91;10306839;28;20176;-58
2022/05/14 07:08:58;;;;;;;20.48;12.20;;;;;;;18.81;60.39;97593.13;10291531;28;20069;-58
2022/05/14 07:13:57;;;;;;;20.95;17.02;;;;;;;18.97;59.89;97610.03;10292125;28;20025;-58
2022/05/14 07:18:56;;;;;;;23.85;19.20;;;;;;;18.78;60.87;97622.13;10320259;28;20124;-58
2022/05/14 07:23:55;;;;;;;26.45;17.85;;;;;;;19.02;60.43;97618.59;10283799;28;20033;-58
2022/05/14 07:28:54;;;;;;;22.75;15.25;;;;;;;19.39;59.64;97622.47;10291602;28;20032;-59
2022/05/14 07:33:53;;;;;;;22.88;15.65;;;;;;;19.68;59.17;97625.78;10291647;28;20512;-58
2022/05/14 07:38:56;;;;;;;17.83;14.73;;;;;;;19.81;58.53;97624.38;10290993;28;20088;-58
2022/05/14 07:43:57;;;;;;;19.90;14.70;;;;;;;19.80;58.31;97617.38;10292186;28;20088;-58
2022/05/14 07:48:58;;;;;;;17.60;13.60;;;;;;;19.78;58.42;97608.69;10291422;28;20073;-58
2022/05/14 07:53:57;;;;;;;16.20;11.60;;;;;;;19.76;58.50;97615.78;10290315;28;20069;-58
2022/05/14 07:58:56;;;;;;;16.52;11.25;;;;;;;19.60;58.72;97620.81;10289010;28;20109;-58
2022/05/14 08:03:55;;;;;;;15.82;11.23;;;;;;;19.50;59.12;97619.41;10291390;28;20069;-58
2022/05/14 08:08:55;;;;;;;14.15;10.52;;;;;;;19.30;59.19;97625.47;10291461;28;20107;-58
2022/05/14 08:13:54;;;;;;;13.60;9.05;;;;;;;19.05;59.52;97627.31;10291700;28;20080;-58
2022/05/14 08:18:53;;;;;;;13.55;9.70;;;;;;;19.07;59.83;97628.97;10286395;28;20073;-58
2022/05/14 08:29:10;;;;;;;13.93;9.60;;;;;;;19.69;59.60;97626.63;10290679;28;20077;-58
2022/05/14 08:34:09;;;;;;;13.07;9.45;;;;;;;19.98;59.54;97625.47;10291238;28;20026;-58
2022/05/14 08:39:07;;;;;;;14.57;10.48;;;;;;;20.46;59.17;97612.00;10289476;28;20041;-58
2022/05/14 08:44:33;;;;;;;12.15;9.25;;;;;;;21.05;57.91;97618.19;10291062;28;20030;-58
2022/05/14 08:49:37;;;;;;;11.50;9.55;;;;;;;21.55;55.86;97609.75;10276217;28;20088;-58
2022/05/14 08:54:36;;;;;;;10.75;9.00;;;;;;;21.96;54.86;97619.25;10294001;28;20100;-58
2022/05/14 08:59:53;;;;;;;12.68;8.82;;;;;;;22.10;55.27;97616.78;10311950;28;20021;-58
2022/05/14 09:05:00;;;;;;;12.80;8.13;;;;;;;22.66;54.47;97620.13;10297662;28;20078;-59
2022/05/14 09:09:59;;;;;;;9.75;7.65;;;;;;;23.15;52.42;97614.06;10297849;28;20065;-58
2022/05/14 09:15:05;;;;;;;7.22;6.45;;;;;;;23.42;49.17;97609.91;10304338;28;20029;-58
2022/05/14 09:20:05;;;;;;;9.50;6.43;;;;;;;23.50;48.52;97614.81;10297035;28;20081;-58
2022/05/14 09:25:36;;;;;;;8.27;6.35;;;;;;;23.64;46.59;97614.88;10304920;28;20080;-58
2022/05/14 09:30:39;;;;;;;10.88;6.80;;;;;;;24.05;47.61;97609.03;10293860;28;20104;-58
2022/05/14 09:35:38;;;;;;;8.15;6.00;;;;;;;24.48;46.78;97601.22;10312328;28;20073;-58
2022/05/14 09:40:38;;;;;;;8.98;6.78;;;;;;;24.90;46.52;97602.25;10334228;28;20829;-58
2022/05/14 09:45:41;;;;;;;7.45;6.10;;;;;;;25.06;44.36;97596.00;10293296;28;20129;-58
2022/05/14 09:50:42;;;;;;;7.32;5.80;;;;;;;24.95;44.56;97577.22;10293637;28;20086;-58
2022/05/14 09:55:49;;;;;;;9.10;6.57;;;;;;;24.94;44.45;97597.59;10293112;28;20081;-58
2022/05/14 10:01:01;;;;;;;7.80;6.57;;;;;;;24.92;43.66;97591.56;10327056;28;20053;-58
2022/05/14 10:06:18;;;;;;;8.02;6.10;;;;;;;24.86;45.54;97584.81;10332290;28;20073;-58
2022/05/14 10:11:23;;;;;;;10.45;5.53;;;;;;;25.17;43.63;97592.66;10290839;28;20126;-58
2022/05/14 10:16:37;;;;;;;8.35;5.43;;;;;;;25.55;41.68;97587.63;10294887;28;20080;-58
2022/05/14 10:22:22;;;;;;;5.70;5.03;;;;;;;25.92;41.29;97572.75;10293862;28;20068;-58
2022/05/14 10:27:42;;;;;;;8.45;5.47;;;;;;;26.48;41.50;97583.22;10294107;28;20065;-58
2022/05/14 10:32:43;;;;;;;10.07;5.80;;;;;;;26.88;41.52;97579.63;10291867;28;20812;-58
2022/05/14 10:37:54;;;;;;;8.43;5.88;;;;;;;27.05;40.33;97579.31;10294060;28;20058;-58
2022/05/14 10:42:53;;;;;;;8.32;5.50;;;;;;;27.12;40.56;97577.91;10293576;28;20758;-58
2022/05/14 10:47:58;;;;;;;8.57;5.38;;;;;;;27.18;38.11;97576.63;10293445;28;20029;-58
2022/05/14 10:52:58;;;;;;;7.55;4.75;;;;;;;27.20;37.16;97562.22;10290535;28;20072;-59
2022/05/14 10:58:07;;;;;;;5.20;4.00;;;;;;;26.91;36.88;97561.66;10300811;28;20081;-59
2022/05/14 11:03:24;;;;;;;6.07;4.40;;;;;;;27.21;36.39;97547.06;10333312;28;20081;-58
2022/05/14 11:08:44;;;;;;;7.25;4.57;;;;;;;27.65;34.73;97543.03;10332327;28;20068;-59
2022/05/14 11:14:07;;;;;;;4.60;3.90;;;;;;;27.57;34.36;97535.59;10292176;28;20099;-58
2022/05/14 11:19:07;;;;;;;6.03;3.88;;;;;;;27.77;35.21;97527.94;10292251;28;20081;-59
2022/05/14 11:24:06;;;;;;;4.53;3.40;;;;;;;27.13;33.64;97531.66;10256830;28;20082;-58
2022/05/14 11:29:17;;;;;;;7.38;3.03;;;;;;;26.86;32.19;97529.16;10249698;28;20074;-59
2022/05/14 11:34:20;;;;;;;3.25;2.55;;;;;;;26.72;31.58;97513.25;10282116;28;20069;-58
2022/05/14 11:39:24;;;;;;;5.88;2.50;;;;;;;26.65;31.75;97530.63;10292571;28;20172;-59
2022/05/14 11:44:31;;;;;;;3.50;2.65;;;;;;;26.74;31.02;97514.00;10306886;28;20140;-58
2022/05/14 11:49:42;;;;;;;6.70;2.75;;;;;;;26.85;30.33;97532.78;10305777;28;20513;-58
2022/05/14 11:55:10;;;;;;;5.57;2.70;;;;;;;26.93;31.98;97518.91;10313596;28;20168;-58
2022/05/14 12:00:15;;;;;;;4.93;2.90;;;;;;;27.21;32.42;97512.44;10298639;28;20112;-59
2022/05/14 12:05:25;;;;;;;4.93;2.85;;;;;;;26.87;31.33;97508.72;10291252;28;20072;-58
2022/05/14 12:10:42;;;;;;;6.35;2.78;;;;;;;26.56;32.34;97510.84;10290493;28;20072;-58
2022/05/14 12:15:57;;;;;;;4.78;2.45;;;;;;;26.35;33.13;97513.19;10300679;28;20065;-58
2022/05/14 12:21:03;;;;;;;8.38;3.67;;;;;;;26.14;33.49;97499.53;10315587;28;20474;-59
2022/05/14 12:26:18;;;;;;;4.45;2.67;;;;;;;26.21;34.16;97510.63;10296440;28;20114;-59
2022/05/14 12:36:53;;;;;;;5.90;2.75;;;;;;;26.75;32.23;97502.41;10299720;28;20061;-58
2022/05/14 12:41:59;;;;;;;4.25;2.63;;;;;;;26.73;33.22;97501.66;10292076;28;20058;-59
2022/05/14 12:47:01;;;;;;;7.10;2.60;;;;;;;26.74;33.63;97506.03;10297175;28;20088;-59
2022/05/14 12:52:07;;;;;;;4.68;2.70;;;;;;;26.53;33.43;97503.06;10297217;28;20106;-58
2022/05/14 12:57:10;;;;;;;3.80;2.50;;;;;;;26.53;33.70;97495.06;10295585;28;20065;-58
2022/05/14 13:02:33;;;;;;;2.60;2.25;;;;;;;26.41;33.14;97469.34;10297457;28;20085;-58
2022/05/14 13:07:34;;;;;;;3.95;2.55;;;;;;;26.71;34.03;97506.25;10297970;28;20081;-59
2022/05/14 13:12:33;;;;;;;3.35;2.15;;;;;;;26.90;32.90;97493.34;10295094;28;20076;-58
2022/05/14 13:17:35;;;;;;;6.15;2.33;;;;;;;26.62;33.04;97491.78;10295893;28;20061;-58
2022/05/14 13:22:40;;;;;;;4.20;2.70;;;;;;;26.70;33.37;97473.47;10296588;28;20065;-58
2022/05/14 13:27:39;;;;;;;3.90;2.17;;;;;;;26.65;32.75;97480.94;10296302;28;20089;-59
2022/05/14 13:32:39;;;;;;;3.78;2.03;;;;;;;26.65;32.03;97477.41;10296285;28;20096;-58
2022/05/14 13:37:56;;;;;;;3.65;2.20;;;;;;;26.75;32.11;97489.09;10296301;28;20080;-59
2022/05/14 13:43:17;;;;;;;5.18;2.20;;;;;;;26.86;31.32;97473.25;10294111;28;20057;-59
2022/05/14 13:48:42;;;;;;;4.72;2.33;;;;;;;27.07;32.08;97467.31;10296317;28;20070;-59
2022/05/14 13:53:41;;;;;;;4.97;2.15;;;;;;;27.12;31.14;97471.38;10293607;28;20480;-59
2022/05/14 13:58:57;;;;;;;3.78;2.67;;;;;;;27.10;30.99;97467.13;10295503;28;20383;-58
2022/05/14 14:03:56;;;;;;;2.67;2.20;;;;;;;26.96;31.36;97439.66;10294345;28;20092;-59
2022/05/14 14:08:56;;;;;;;2.50;2.00;;;;;;;26.93;31.81;97461.19;10294426;28;20076;-59
2022/05/14 14:13:54;;;;;;;2.90;2.60;;;;;;;26.86;32.33;97465.28;10293514;28;20060;-58
2022/05/14 14:18:54;;;;;;;4.80;2.83;;;;;;;26.44;32.73;97470.00;10292507;28;20040;-58
2022/05/14 14:23:56;;;;;;;2.67;2.30;;;;;;;26.17;32.76;97475.38;10289917;28;20062;-58
2022/05/14 14:28:55;;;;;;;2.33;2.08;;;;;;;25.85;33.83;97461.59;10290425;28;20070;-59
2022/05/14 14:33:54;;;;;;;3.30;2.53;;;;;;;25.66;34.27;97470.81;10290173;28;20057;-58
2022/05/14 14:38:53;;;;;;;5.38;2.55;;;;;;;25.63;34.77;97456.91;10292180;28;20037;-58
2022/05/14 14:43:52;;;;;;;4.60;2.70;;;;;;;25.38;35.77;97468.25;10291070;28;20021;-58
2022/05/14 14:48:53;;;;;;;4.38;3.30;;;;;;;25.36;37.40;97457.72;10290740;28;20030;-59
2022/05/14 14:53:53;;;;;;;5.75;3.60;;;;;;;25.36;37.97;97464.84;10293029;28;20536;-58
2022/05/14 14:58:52;;;;;;;5.68;3.60;;;;;;;25.26;38.62;97459.28;10293153;28;20057;-59
2022/05/14 15:03:58;;;;;;;6.10;3.90;;;;;;;25.02;38.98;97461.75;10292067;28;20061;-59
2022/05/14 15:08:57;;;;;;;7.38;4.13;;;;;;;25.13;39.39;97459.25;10287434;28;20113;-58
2022/05/14 15:14:02;;;;;;;7.57;5.18;;;;;;;25.02;39.35;97467.06;10292265;28;20064;-58
2022/05/14 15:19:01;;;;;;;6.63;4.68;;;;;;;24.78;39.42;97470.28;10289960;28;20076;-58
2022/05/14 15:24:01;;;;;;;7.30;4.53;;;;;;;24.73;39.76;97476.81;10290992;28;20117;-59
2022/05/14 15:29:00;;;;;;;8.98;4.90;;;;;;;24.65;39.84;97485.25;10292394;28;20468;-59
2022/05/14 15:33:59;;;;;;;8.07;5.20;;;;;;;24.53;39.96;97496.66;10292111;28;20104;-59
2022/05/14 15:38:58;;;;;;;7.72;5.10;;;;;;;24.60;39.66;97506.78;10291080;28;20412;-58
2022/05/14 15:44:01;;;;;;;11.30;5.80;;;;;;;24.64;41.84;97516.25;10292416;28;20057;-58
2022/05/14 15:49:04;;;;;;;9.98;6.18;;;;;;;24.27;43.48;97533.56;10300312;28;20073;-58
2022/05/14 15:54:04;;;;;;;13.88;6.38;;;;;;;23.99;44.97;97527.22;10306273;28;20073;-58
2022/05/14 15:59:03;;;;;;;11.05;6.40;;;;;;;23.73;45.37;97509.34;10273146;28;20050;-58
2022/05/14 16:04:02;;;;;;;7.43;5.22;;;;;;;23.83;45.15;97526.41;10270437;28;20042;-58
2022/05/14 16:09:02;;;;;;;6.50;5.25;;;;;;;23.81;44.15;97493.84;10258961;28;20077;-58
2022/05/14 16:19:19;;;;;;;7.75;4.93;;;;;;;24.24;43.58;97523.16;10218928;28;20058;-58
2022/05/14 16:24:18;;;;;;;6.88;5.35;;;;;;;24.28;43.66;97527.31;10246706;28;20117;-58
2022/05/14 16:29:17;;;;;;;15.45;6.60;;;;;;;24.19;43.26;97526.06;10256106;28;20065;-58
2022/05/14 16:34:16;;;;;;;9.07;4.88;;;;;;;24.26;43.71;97521.22;10256403;28;20088;-58
2022/05/14 16:39:17;;;;;;;6.72;5.00;;;;;;;24.24;44.18;97528.44;10255637;28;20124;-58
2022/05/14 16:44:16;;;;;;;6.50;5.13;;;;;;;24.14;43.97;97527.25;10254779;28;20054;-58
2022/05/14 16:49:15;;;;;;;6.03;4.40;;;;;;;23.99;44.03;97529.00;10256668;28;20524;-58
2022/05/14 16:54:15;;;;;;;7.55;4.80;;;;;;;23.83;44.59;97532.56;10257320;28;20490;-58
2022/05/14 16:59:14;;;;;;;7.28;5.10;;;;;;;23.68;44.52;97545.81;10253478;28;20073;-58
2022/05/14 17:04:13;;;;;;;7.82;5.38;;;;;;;23.29;45.49;97544.47;10253337;28;20049;-58
2022/05/14 17:09:12;;;;;;;9.13;6.03;;;;;;;23.02;46.36;97547.69;10256009;28;20134;-58
2022/05/14 17:14:11;;;;;;;8.07;5.65;;;;;;;22.87;46.47;97556.47;10254004;28;20547;-58
2022/05/14 17:19:10;;;;;;;7.72;4.95;;;;;;;22.75;46.48;97568.56;10256724;28;20018;-58
2022/05/14 17:24:10;;;;;;;7.40;5.07;;;;;;;22.48;46.85;97563.75;10256374;28;20449;-58
2022/05/14 17:29:10;;;;;;;7.95;5.28;;;;;;;22.27;47.57;97560.47;10254730;28;20072;-58
2022/05/14 17:34:09;;;;;;;9.63;5.10;;;;;;;22.19;47.90;97573.19;10255918;28;20482;-58
2022/05/14 17:39:53;;;;;;;10.43;5.72;;;;;;;22.08;49.24;97580.81;10253197;28;20485;-58
2022/05/14 17:44:28;;;;;;;7.75;5.53;;;;;;;21.84;49.34;97590.78;10253938;28;20074;-58
2022/05/14 17:49:26;;;;;;;10.73;5.88;;;;;;;21.56;50.73;97584.19;10255259;28;20525;-58
2022/05/14 17:54:25;;;;;;;8.13;5.65;;;;;;;21.32;52.81;97602.06;10255093;28;20510;-58
2022/05/14 17:59:26;;;;;;;7.70;5.72;;;;;;;21.05;54.10;97597.09;10252011;28;20412;-58
2022/05/14 18:04:26;;;;;;;10.75;5.93;;;;;;;20.83;54.94;97599.00;10253778;28;20066;-58
2022/05/14 18:09:28;;;;;;;13.23;6.60;;;;;;;20.61;55.66;97610.50;10253816;28;20076;-58
2022/05/14 18:14:30;;;;;;;11.73;6.20;;;;;;;20.40;56.47;97619.31;10253794;28;20102;-58
2022/05/14 18:19:37;;;;;;;11.05;6.75;;;;;;;20.21;57.54;97627.13;10253691;28;20085;-58
2022/05/14 18:24:37;;;;;;;9.55;6.05;;;;;;;19.94;58.21;97635.25;10253964;28;20562;-58
2022/05/14 18:29:45;;;;;;;10.40;6.95;;;;;;;19.68;58.86;97627.56;10252558;28;20467;-58
2022/05/14 18:34:44;;;;;;;8.43;5.80;;;;;;;19.60;59.24;97641.88;10252924;28;20469;-58
2022/05/14 18:39:47;;;;;;;9.27;5.70;;;;;;;19.39;59.69;97642.66;10251652;28;20057;-58
2022/05/14 18:44:51;;;;;;;8.55;5.20;;;;;;;19.27;59.69;97658.91;10253483;28;20074;-58
2022/05/14 18:49:50;;;;;;;9.00;6.15;;;;;;;19.12;60.45;97665.63;10252794;28;20062;-58
2022/05/14 18:54:49;;;;;;;8.95;6.57;;;;;;;18.81;61.52;97645.69;10252836;28;20053;-58
2022/05/14 18:59:48;;;;;;;11.52;7.50;;;;;;;18.82;61.69;97679.78;10252668;28;20022;-58
2022/05/14 19:10:07;;;;;;;8.45;5.70;;;;;;;18.63;62.89;97693.63;10252458;28;20450;-58
2022/05/14 19:15:06;;;;;;;8.35;5.53;;;;;;;18.48;63.18;97701.13;10251869;28;20062;-58
2022/05/14 19:20:08;;;;;;;9.43;6.38;;;;;;;18.36;63.47;97706.75;10251068;28;20054;-58
2022/05/14 19:25:09;;;;;;;10.07;6.35;;;;;;;18.26;63.74;97715.88;10249457;28;20501;-58
2022/05/14 19:30:09;;;;;;;10.30;6.88;;;;;;;18.12;64.20;97724.19;10250820;28;20536;-58
2022/05/14 19:35:08;;;;;;;8.02;5.95;;;;;;;17.97;64.51;97722.91;10251007;28;20076;-58
2022/05/14 19:40:32;;;;;;;7.05;5.50;;;;;;;17.87;64.83;97738.09;10251075;28;20073;-58
2022/05/14 19:45:35;;;;;;;11.35;6.07;;;;;;;17.80;64.97;97738.31;10250166;28;20074;-58
2022/05/14 19:50:36;;;;;;;10.90;6.18;;;;;;;17.74;65.23;97724.44;10247859;28;20826;-58
2022/05/14 19:55:38;;;;;;;10.55;6.72;;;;;;;17.71;65.49;97728.94;10251491;28;20073;-58
2022/05/14 20:00:39;;;;;;;8.13;5.47;;;;;;;17.72;65.78;97731.50;10251045;28;20852;-58
2022/05/14 20:05:44;;;;;;;8.40;5.55;;;;;;;17.73;65.89;97737.59;10248383;28;20073;-58
2022/05/14 20:10:44;;;;;;;10.80;5.60;;;;;;;17.67;66.90;97737.78;10251117;28;20069;-58
2022/05/14 20:15:44;;;;;;;10.02;5.95;;;;;;;17.65;67.41;97750.94;10251610;28;20081;-58
2022/05/14 20:20:49;;;;;;;10.05;6.15;;;;;;;17.44;70.30;97747.19;10247724;28;20466;-59
2022/05/14 20:25:50;;;;;;;11.70;7.50;;;;;;;17.35;70.20;97729.97;10250777;28;20533;-59
2022/05/14 20:30:49;;;;;;;12.32;6.95;;;;;;;17.32;71.33;97748.41;10250063;28;20549;-58
2022/05/14 20:35:49;;;;;;;9.93;6.07;;;;;;;17.23;71.41;97734.69;10250711;28;20494;-59
2022/05/14 20:40:48;;;;;;;11.35;7.28;;;;;;;17.27;71.95;97745.03;10256415;28;20073;-59
2022/05/14 20:45:48;;;;;;;15.77;7.40;;;;;;;17.21;71.88;97739.97;10257932;28;20472;-59
2022/05/14 20:50:47;;;;;;;11.55;8.02;;;;;;;17.18;72.14;97745.31;10254219;28;20065;-59
2022/05/14 20:55:46;;;;;;;11.20;7.88;;;;;;;17.15;72.41;97737.53;10257701;28;20588;-58
2022/05/14 21:00:45;;;;;;;14.88;8.50;;;;;;;16.82;73.70;97731.44;10257697;28;20030;-58
2022/05/14 21:05:45;;;;;;;12.30;9.05;;;;;;;16.85;73.69;97752.31;10256660;28;20073;-59
2022/05/14 21:10:46;;;;;;;14.57;9.85;;;;;;;16.71;74.58;97765.75;10255620;28;20061;-59
2022/05/14 21:15:45;;;;;;;18.63;10.05;;;;;;;16.68;74.15;97766.69;10257400;28;20077;-59
2022/05/14 21:20:44;;;;;;;;;;;;;;;16.65;74.20;97779.88;10255178;28;20042;-59
2022/05/14 21:25:43;;;;;;;16.60;11.00;;;;;;;16.54;74.81;97775.81;10255826;28;19918;-59
2022/05/14 21:30:41;;;;;;;;;;;;;;;16.38;76.21;97775.31;10254623;28;20076;-59
2022/05/14 21:40:58;;;;;;;11.38;8.57;;;;;;;16.18;77.35;97786.22;10255738;28;20445;-59
2022/05/14 21:45:57;;;;;;;11.38;8.20;;;;;;;16.16;77.34;97778.44;10256490;28;20497;-59
2022/05/14 21:50:56;;;;;;;;;;;;;;;16.13;77.04;97788.09;10254889;28;20792;-59
2022/05/14 21:55:54;;;;;;;12.63;8.63;;;;;;;16.08;77.14;97786.44;10254309;28;19953;-58
2022/05/14 22:01:12;;;;;;;;;;;;;;;16.05;77.90;97785.66;10255166;28;20022;-58
2022/05/14 22:06:11;;;;;;;18.42;10.82;;;;;;;15.94;78.00;97785.88;10253936;28;19972;-58
2022/05/14 22:11:10;;;;;;;;;;;;;;;15.75;80.22;97787.16;10268965;28;20070;-58
2022/05/14 22:16:09;;;;;;;13.13;9.20;;;;;;;15.70;79.94;97783.78;10250481;28;19945;-59
2022/05/14 22:21:09;;;;;;;15.73;9.60;;;;;;;15.68;79.63;97787.28;10252387;28;20077;-58
2022/05/14 22:26:08;;;;;;;15.73;10.82;;;;;;;15.58;79.58;97780.53;10253587;28;20076;-58
2022/05/14 22:31:06;;;;;;;;;;;;;;;15.48;80.82;97784.19;10254288;28;20830;-58
2022/05/14 22:36:06;;;;;;;13.65;8.95;;;;;;;15.31;82.08;97792.38;10253430;28;21444;-58
2022/05/14 22:41:06;;;;;;;12.98;9.23;;;;;;;15.26;81.88;97794.22;10253965;28;20529;-58
2022/05/14 22:46:06;;;;;;;12.32;9.23;;;;;;;15.08;81.76;97776.28;10253376;28;20054;-59
2022/05/14 22:51:08;;;;;;;19.50;10.95;;;;;;;15.10;82.29;97792.78;10253156;28;20482;-59
2022/05/14 22:56:07;;;;;;;15.15;11.15;;;;;;;14.93;82.33;97775.69;10264519;28;20073;-59
2022/05/14 23:01:08;;;;;;;;;;;;;;;14.84;83.22;97768.00;10251119;28;20552;-58
2022/05/14 23:06:07;;;;;;;14.63;10.25;;;;;;;14.60;83.50;97740.53;10250324;28;19953;-58
2022/05/14 23:11:07;;;;;;;18.55;11.45;;;;;;;14.65;83.79;97770.03;10250602;28;20786;-58
2022/05/14 23:16:07;;;;;;;17.27;11.38;;;;;;;14.57;84.13;97771.94;10252720;28;20054;-59
2022/05/14 23:21:06;;;;;;;17.20;11.77;;;;;;;14.52;83.91;97782.47;10252215;28;20549;-58
2022/05/14 23:26:08;;;;;;;;;;;;;;;14.47;84.14;97783.41;10253850;28;20074;-58
2022/05/14 23:31:07;;;;;;;18.27;11.75;;;;;;;14.34;84.90;97785.34;10251004;28;19965;-58
2022/05/14 23:36:24;;;;;;;;;;;;;;;14.21;85.38;97784.66;10249473;28;20057;-59
2022/05/14 23:41:24;;;;;;;16.77;10.80;;;;;;;14.09;86.20;97790.06;10248407;28;20362;-58
2022/05/14 23:46:23;;;;;;;16.70;11.68;;;;;;;14.03;86.15;97780.59;10251328;28;20061;-58
2022/05/14 23:51:22;;;;;;;17.50;11.55;;;;;;;13.97;86.16;97786.75;10251153;28;20040;-58
2022/05/14 23:56:21;;;;;;;17.60;11.45;;;;;;;13.91;86.31;97778.16;10251725;28;20085;-58
